Slap Out, Illinois
Current Conditions -  °F | °C
As of 4:35 AM on Saturday 22 Nov 2014 (Local Time) from KFOA Reporting Station
Clear Clear  
Wind Chill: 36°   Ceiling: Unl
Heat Index: 40°   Visibility: 10mi
Dew Point: 32°   Wind: 7mph
Humidity: 71%   Direction: 180°S
Pressure: 30.2"   Gusts: NA
Location:  38.6075°N, 88.751°W
Report Text: KFOA 221035Z AUTO 18006KT 10SM CLR 05/00 A3020 RMK AO2 T00471001
Loading
Personal Weather Stations






























Interactive Weather Map New forecast layout! Learn more

10-Day Weather Forecast

Advertisements
Track Severe Weather on mobile